sensor_id;sensor_type;location;lat;lon;timestamp;P1;durP1;ratioP1;P2;durP2;ratioP2
59689;SDS011;45557;50.298;18.930;2022-09-27T00:04:10;41.10;;;31.70;;
59689;SDS011;45557;50.298;18.930;2022-09-27T00:11:04;51.80;;;36.40;;
59689;SDS011;45557;50.298;18.930;2022-09-27T00:17:44;40.60;;;29.40;;
59689;SDS011;45557;50.298;18.930;2022-09-27T00:24:31;48.30;;;32.20;;
59689;SDS011;45557;50.298;18.930;2022-09-27T00:31:17;48.80;;;32.40;;
59689;SDS011;45557;50.298;18.930;2022-09-27T00:37:59;74.10;;;57.10;;
59689;SDS011;45557;50.298;18.930;2022-09-27T00:44:50;35.40;;;26.60;;
59689;SDS011;45557;50.298;18.930;2022-09-27T00:51:28;42.50;;;31.00;;
59689;SDS011;45557;50.298;18.930;2022-09-27T00:58:12;39.10;;;29.20;;
59689;SDS011;45557;50.298;18.930;2022-09-27T01:04:55;39.10;;;29.30;;
59689;SDS011;45557;50.298;18.930;2022-09-27T01:19:09;35.40;;;26.50;;
59689;SDS011;45557;50.298;18.930;2022-09-27T01:32:35;37.40;;;27.60;;
59689;SDS011;45557;50.298;18.930;2022-09-27T01:46:49;51.60;;;36.80;;
59689;SDS011;45557;50.298;18.930;2022-09-27T01:53:33;43.00;;;30.40;;
59689;SDS011;45557;50.298;18.930;2022-09-27T02:00:15;45.80;;;32.40;;
59689;SDS011;45557;50.298;18.930;2022-09-27T02:07:01;55.20;;;36.20;;
59689;SDS011;45557;50.298;18.930;2022-09-27T02:14:03;50.80;;;35.30;;
59689;SDS011;45557;50.298;18.930;2022-09-27T02:20:57;54.00;;;37.60;;
59689;SDS011;45557;50.298;18.930;2022-09-27T02:27:45;50.20;;;33.20;;
59689;SDS011;45557;50.298;18.930;2022-09-27T02:34:24;55.10;;;36.20;;
59689;SDS011;45557;50.298;18.930;2022-09-27T02:41:15;48.20;;;34.90;;
59689;SDS011;45557;50.298;18.930;2022-09-27T02:54:56;45.50;;;31.20;;
59689;SDS011;45557;50.298;18.930;2022-09-27T03:01:43;41.10;;;29.30;;
59689;SDS011;45557;50.298;18.930;2022-09-27T03:08:32;41.60;;;29.20;;
59689;SDS011;45557;50.298;18.930;2022-09-27T03:15:15;49.90;;;31.60;;
59689;SDS011;45557;50.298;18.930;2022-09-27T03:22:04;42.50;;;28.60;;
59689;SDS011;45557;50.298;18.930;2022-09-27T03:28:47;41.30;;;28.60;;
59689;SDS011;45557;50.298;18.930;2022-09-27T03:35:29;40.70;;;28.00;;
59689;SDS011;45557;50.298;18.930;2022-09-27T03:42:12;38.70;;;27.40;;
59689;SDS011;45557;50.298;18.930;2022-09-27T03:48:55;34.90;;;26.00;;
59689;SDS011;45557;50.298;18.930;2022-09-27T03:55:40;32.80;;;22.70;;
59689;SDS011;45557;50.298;18.930;2022-09-27T04:02:23;32.70;;;23.20;;
59689;SDS011;45557;50.298;18.930;2022-09-27T04:09:04;33.80;;;23.70;;
59689;SDS011;45557;50.298;18.930;2022-09-27T04:15:47;36.60;;;23.10;;
59689;SDS011;45557;50.298;18.930;2022-09-27T04:22:33;25.40;;;19.10;;
59689;SDS011;45557;50.298;18.930;2022-09-27T04:29:16;28.70;;;18.80;;
59689;SDS011;45557;50.298;18.930;2022-09-27T04:35:58;26.20;;;18.60;;
59689;SDS011;45557;50.298;18.930;2022-09-27T04:42:41;21.80;;;16.10;;
59689;SDS011;45557;50.298;18.930;2022-09-27T04:49:24;27.10;;;17.20;;
59689;SDS011;45557;50.298;18.930;2022-09-27T04:56:07;23.80;;;15.80;;
59689;SDS011;45557;50.298;18.930;2022-09-27T05:02:50;25.10;;;16.10;;
59689;SDS011;45557;50.298;18.930;2022-09-27T05:09:33;32.50;;;24.90;;
59689;SDS011;45557;50.298;18.930;2022-09-27T05:16:16;23.20;;;18.80;;
59689;SDS011;45557;50.298;18.930;2022-09-27T05:23:02;25.60;;;17.80;;
59689;SDS011;45557;50.298;18.930;2022-09-27T05:29:45;29.60;;;22.00;;
59689;SDS011;45557;50.298;18.930;2022-09-27T05:36:28;22.10;;;16.50;;
59689;SDS011;45557;50.298;18.930;2022-09-27T05:43:11;23.30;;;17.50;;
59689;SDS011;45557;50.298;18.930;2022-09-27T05:49:54;20.80;;;15.50;;
59689;SDS011;45557;50.298;18.930;2022-09-27T05:56:37;24.60;;;19.90;;
59689;SDS011;45557;50.298;18.930;2022-09-27T06:03:21;18.80;;;14.40;;
59689;SDS011;45557;50.298;18.930;2022-09-27T06:10:05;17.90;;;14.30;;
59689;SDS011;45557;50.298;18.930;2022-09-27T06:16:48;20.50;;;15.00;;
59689;SDS011;45557;50.298;18.930;2022-09-27T06:23:31;19.90;;;14.40;;
59689;SDS011;45557;50.298;18.930;2022-09-27T06:30:14;20.40;;;15.10;;
59689;SDS011;45557;50.298;18.930;2022-09-27T06:37:03;17.90;;;14.40;;
59689;SDS011;45557;50.298;18.930;2022-09-27T06:43:27;23.60;;;15.20;;
59689;SDS011;45557;50.298;18.930;2022-09-27T06:50:09;18.00;;;15.30;;
59689;SDS011;45557;50.298;18.930;2022-09-27T06:56:52;19.40;;;15.80;;
59689;SDS011;45557;50.298;18.930;2022-09-27T07:03:34;18.50;;;13.90;;
59689;SDS011;45557;50.298;18.930;2022-09-27T07:10:17;40.30;;;16.60;;
59689;SDS011;45557;50.298;18.930;2022-09-27T07:17:20;16.20;;;12.00;;
59689;SDS011;45557;50.298;18.930;2022-09-27T07:24:23;16.30;;;10.60;;
59689;SDS011;45557;50.298;18.930;2022-09-27T07:31:07;18.10;;;13.60;;
59689;SDS011;45557;50.298;18.930;2022-09-27T07:37:51;15.00;;;11.00;;
59689;SDS011;45557;50.298;18.930;2022-09-27T07:44:38;14.20;;;8.90;;
59689;SDS011;45557;50.298;18.930;2022-09-27T07:52:19;12.80;;;9.20;;
59689;SDS011;45557;50.298;18.930;2022-09-27T08:14:05;9.80;;;8.10;;
59689;SDS011;45557;50.298;18.930;2022-09-27T08:20:36;10.60;;;8.30;;
59689;SDS011;45557;50.298;18.930;2022-09-27T08:27:31;10.60;;;7.20;;
59689;SDS011;45557;50.298;18.930;2022-09-27T08:34:17;11.80;;;7.80;;
59689;SDS011;45557;50.298;18.930;2022-09-27T08:47:53;10.90;;;6.90;;
59689;SDS011;45557;50.298;18.930;2022-09-27T08:54:36;9.30;;;6.50;;
59689;SDS011;45557;50.298;18.930;2022-09-27T09:01:19;9.20;;;6.10;;
59689;SDS011;45557;50.298;18.930;2022-09-27T09:15:19;9.20;;;6.00;;
59689;SDS011;45557;50.298;18.930;2022-09-27T09:28:42;9.10;;;5.80;;
59689;SDS011;45557;50.298;18.930;2022-09-27T09:34:46;8.50;;;5.50;;
59689;SDS011;45557;50.298;18.930;2022-09-27T09:41:14;8.30;;;5.80;;
59689;SDS011;45557;50.298;18.930;2022-09-27T09:48:11;9.00;;;6.00;;
59689;SDS011;45557;50.298;18.930;2022-09-27T09:54:42;9.60;;;5.60;;
59689;SDS011;45557;50.298;18.930;2022-09-27T10:00:20;8.10;;;4.50;;
59689;SDS011;45557;50.298;18.930;2022-09-27T10:05:58;8.80;;;5.10;;
59689;SDS011;45557;50.298;18.930;2022-09-27T10:11:47;6.60;;;4.20;;
59689;SDS011;45557;50.298;18.930;2022-09-27T10:17:56;7.80;;;4.50;;
59689;SDS011;45557;50.298;18.930;2022-09-27T10:23:31;7.10;;;4.00;;
59689;SDS011;45557;50.298;18.930;2022-09-27T10:29:21;8.20;;;4.50;;
59689;SDS011;45557;50.298;18.930;2022-09-27T10:35:32;7.60;;;4.20;;
59689;SDS011;45557;50.298;18.930;2022-09-27T10:41:33;8.20;;;4.70;;
59689;SDS011;45557;50.298;18.930;2022-09-27T10:47:36;7.30;;;4.00;;
59689;SDS011;45557;50.298;18.930;2022-09-27T10:53:12;9.00;;;4.90;;
59689;SDS011;45557;50.298;18.930;2022-09-27T10:59:55;8.40;;;4.50;;
59689;SDS011;45557;50.298;18.930;2022-09-27T11:06:37;7.20;;;3.80;;
59689;SDS011;45557;50.298;18.930;2022-09-27T11:13:46;9.60;;;6.10;;
59689;SDS011;45557;50.298;18.930;2022-09-27T11:20:26;7.00;;;4.20;;
59689;SDS011;45557;50.298;18.930;2022-09-27T11:26:28;5.70;;;3.40;;
59689;SDS011;45557;50.298;18.930;2022-09-27T12:12:42;8.80;;;4.00;;
59689;SDS011;45557;50.298;18.930;2022-09-27T12:19:31;8.80;;;4.10;;
59689;SDS011;45557;50.298;18.930;2022-09-27T12:26:19;8.80;;;3.80;;
59689;SDS011;45557;50.298;18.930;2022-09-27T12:33:17;8.10;;;4.10;;
59689;SDS011;45557;50.298;18.930;2022-09-27T12:40:12;11.00;;;5.10;;
59689;SDS011;45557;50.298;18.930;2022-09-27T12:53:28;7.10;;;4.30;;
59689;SDS011;45557;50.298;18.930;2022-09-27T13:00:21;7.50;;;4.50;;
59689;SDS011;45557;50.298;18.930;2022-09-27T13:07:19;7.70;;;4.70;;
59689;SDS011;45557;50.298;18.930;2022-09-27T13:14:00;8.00;;;5.30;;
59689;SDS011;45557;50.298;18.930;2022-09-27T13:20:43;8.70;;;5.50;;
59689;SDS011;45557;50.298;18.930;2022-09-27T13:26:45;8.00;;;5.10;;
59689;SDS011;45557;50.298;18.930;2022-09-27T13:40:20;8.20;;;5.10;;
59689;SDS011;45557;50.298;18.930;2022-09-27T13:47:19;7.00;;;4.60;;
59689;SDS011;45557;50.298;18.930;2022-09-27T13:53:32;8.50;;;5.40;;
59689;SDS011;45557;50.298;18.930;2022-09-27T14:00:23;8.30;;;5.20;;
59689;SDS011;45557;50.298;18.930;2022-09-27T14:07:11;7.50;;;5.10;;
59689;SDS011;45557;50.298;18.930;2022-09-27T14:13:55;9.00;;;5.60;;
59689;SDS011;45557;50.298;18.930;2022-09-27T14:20:42;6.10;;;3.70;;
59689;SDS011;45557;50.298;18.930;2022-09-27T14:27:39;5.40;;;2.90;;
59689;SDS011;45557;50.298;18.930;2022-09-27T14:34:34;4.20;;;1.90;;
59689;SDS011;45557;50.298;18.930;2022-09-27T14:41:14;4.50;;;2.20;;
59689;SDS011;45557;50.298;18.930;2022-09-27T14:47:57;5.10;;;2.50;;
59689;SDS011;45557;50.298;18.930;2022-09-27T14:54:35;6.60;;;2.50;;
59689;SDS011;45557;50.298;18.930;2022-09-27T15:01:00;7.30;;;3.20;;
59689;SDS011;45557;50.298;18.930;2022-09-27T15:07:34;9.30;;;4.90;;
59689;SDS011;45557;50.298;18.930;2022-09-27T15:14:19;9.20;;;4.80;;
59689;SDS011;45557;50.298;18.930;2022-09-27T15:21:02;10.70;;;5.60;;
59689;SDS011;45557;50.298;18.930;2022-09-27T15:27:27;9.10;;;5.10;;
59689;SDS011;45557;50.298;18.930;2022-09-27T15:34:16;9.90;;;6.50;;
59689;SDS011;45557;50.298;18.930;2022-09-27T15:54:24;15.90;;;9.80;;
59689;SDS011;45557;50.298;18.930;2022-09-27T16:00:34;16.40;;;9.10;;
59689;SDS011;45557;50.298;18.930;2022-09-27T16:07:18;12.30;;;8.40;;
59689;SDS011;45557;50.298;18.930;2022-09-27T16:14:05;17.70;;;11.90;;
59689;SDS011;45557;50.298;18.930;2022-09-27T16:20:48;16.50;;;10.60;;
59689;SDS011;45557;50.298;18.930;2022-09-27T16:27:35;22.70;;;15.80;;
59689;SDS011;45557;50.298;18.930;2022-09-27T16:34:22;17.90;;;11.60;;
59689;SDS011;45557;50.298;18.930;2022-09-27T16:41:07;18.70;;;13.20;;
59689;SDS011;45557;50.298;18.930;2022-09-27T16:47:50;20.20;;;15.60;;
59689;SDS011;45557;50.298;18.930;2022-09-27T16:54:35;26.30;;;18.50;;
59689;SDS011;45557;50.298;18.930;2022-09-27T17:01:21;26.90;;;19.60;;
59689;SDS011;45557;50.298;18.930;2022-09-27T17:08:04;26.60;;;18.80;;
59689;SDS011;45557;50.298;18.930;2022-09-27T17:14:46;25.90;;;18.70;;
59689;SDS011;45557;50.298;18.930;2022-09-27T17:21:30;23.70;;;18.40;;
59689;SDS011;45557;50.298;18.930;2022-09-27T17:28:15;23.40;;;16.90;;
59689;SDS011;45557;50.298;18.930;2022-09-27T17:35:02;28.80;;;23.00;;
59689;SDS011;45557;50.298;18.930;2022-09-27T17:41:48;25.50;;;19.60;;
59689;SDS011;45557;50.298;18.930;2022-09-27T17:48:30;25.00;;;17.90;;
59689;SDS011;45557;50.298;18.930;2022-09-27T17:55:12;28.10;;;21.10;;
59689;SDS011;45557;50.298;18.930;2022-09-27T18:01:55;29.90;;;22.30;;
59689;SDS011;45557;50.298;18.930;2022-09-27T18:08:39;23.60;;;17.50;;
59689;SDS011;45557;50.298;18.930;2022-09-27T18:15:23;22.10;;;15.60;;
59689;SDS011;45557;50.298;18.930;2022-09-27T18:22:06;22.10;;;16.00;;
59689;SDS011;45557;50.298;18.930;2022-09-27T18:28:51;20.40;;;15.60;;
59689;SDS011;45557;50.298;18.930;2022-09-27T18:35:33;21.00;;;16.60;;
59689;SDS011;45557;50.298;18.930;2022-09-27T18:42:16;25.00;;;16.70;;
59689;SDS011;45557;50.298;18.930;2022-09-27T18:49:00;22.20;;;16.40;;
59689;SDS011;45557;50.298;18.930;2022-09-27T18:55:42;23.50;;;15.50;;
59689;SDS011;45557;50.298;18.930;2022-09-27T19:02:25;22.10;;;16.70;;
59689;SDS011;45557;50.298;18.930;2022-09-27T19:09:09;22.90;;;16.50;;
59689;SDS011;45557;50.298;18.930;2022-09-27T19:15:54;20.50;;;15.40;;
59689;SDS011;45557;50.298;18.930;2022-09-27T19:22:19;21.60;;;15.20;;
59689;SDS011;45557;50.298;18.930;2022-09-27T19:29:02;20.50;;;14.60;;
59689;SDS011;45557;50.298;18.930;2022-09-27T19:35:48;19.50;;;13.60;;
59689;SDS011;45557;50.298;18.930;2022-09-27T19:42:12;21.30;;;14.50;;
59689;SDS011;45557;50.298;18.930;2022-09-27T19:48:42;19.60;;;13.90;;
59689;SDS011;45557;50.298;18.930;2022-09-27T19:55:09;22.30;;;14.20;;
59689;SDS011;45557;50.298;18.930;2022-09-27T20:00:36;24.70;;;17.10;;
59689;SDS011;45557;50.298;18.930;2022-09-27T20:06:48;19.80;;;14.00;;
59689;SDS011;45557;50.298;18.930;2022-09-27T20:12:50;21.10;;;12.80;;
59689;SDS011;45557;50.298;18.930;2022-09-27T20:19:09;22.30;;;14.00;;
59689;SDS011;45557;50.298;18.930;2022-09-27T20:25:15;21.50;;;13.00;;
59689;SDS011;45557;50.298;18.930;2022-09-27T20:31:48;20.60;;;12.80;;
59689;SDS011;45557;50.298;18.930;2022-09-27T20:38:09;19.30;;;12.20;;
59689;SDS011;45557;50.298;18.930;2022-09-27T20:43:57;16.80;;;11.50;;
59689;SDS011;45557;50.298;18.930;2022-09-27T20:50:20;14.20;;;9.80;;
59689;SDS011;45557;50.298;18.930;2022-09-27T20:56:37;13.60;;;9.80;;
59689;SDS011;45557;50.298;18.930;2022-09-27T21:03:37;19.20;;;12.30;;
59689;SDS011;45557;50.298;18.930;2022-09-27T21:09:59;19.40;;;13.20;;
59689;SDS011;45557;50.298;18.930;2022-09-27T21:15:42;19.20;;;12.20;;
59689;SDS011;45557;50.298;18.930;2022-09-27T21:22:25;17.50;;;12.50;;
59689;SDS011;45557;50.298;18.930;2022-09-27T21:29:05;18.00;;;12.70;;
59689;SDS011;45557;50.298;18.930;2022-09-27T21:35:50;19.20;;;12.90;;
59689;SDS011;45557;50.298;18.930;2022-09-27T21:42:32;19.80;;;12.50;;
59689;SDS011;45557;50.298;18.930;2022-09-27T21:49:16;17.50;;;11.50;;
59689;SDS011;45557;50.298;18.930;2022-09-27T21:55:59;14.50;;;9.90;;
59689;SDS011;45557;50.298;18.930;2022-09-27T22:02:41;14.70;;;9.80;;
59689;SDS011;45557;50.298;18.930;2022-09-27T22:09:24;14.80;;;9.70;;
59689;SDS011;45557;50.298;18.930;2022-09-27T22:16:08;13.40;;;9.20;;
59689;SDS011;45557;50.298;18.930;2022-09-27T22:22:50;12.00;;;8.80;;
59689;SDS011;45557;50.298;18.930;2022-09-27T22:29:32;14.80;;;8.50;;
59689;SDS011;45557;50.298;18.930;2022-09-27T22:36:15;13.20;;;8.50;;
59689;SDS011;45557;50.298;18.930;2022-09-27T22:42:57;12.50;;;7.70;;
59689;SDS011;45557;50.298;18.930;2022-09-27T22:56:56;11.50;;;7.40;;
59689;SDS011;45557;50.298;18.930;2022-09-27T23:04:26;10.70;;;6.60;;
59689;SDS011;45557;50.298;18.930;2022-09-27T23:18:09;14.20;;;8.30;;
59689;SDS011;45557;50.298;18.930;2022-09-27T23:24:52;12.30;;;6.80;;
59689;SDS011;45557;50.298;18.930;2022-09-27T23:31:14;11.60;;;7.10;;
59689;SDS011;45557;50.298;18.930;2022-09-27T23:37:36;11.70;;;6.90;;
59689;SDS011;45557;50.298;18.930;2022-09-27T23:44:25;11.60;;;6.80;;
59689;SDS011;45557;50.298;18.930;2022-09-27T23:51:10;12.20;;;7.10;;
59689;SDS011;45557;50.298;18.930;2022-09-27T23:57:53;9.40;;;5.70;;
